Terminal Aerodrome Forecast
Issued by NWS

Home | Current Version | Previous Version | Text Only | Print | Product List | Glossary On
Versions: 1 2 3 4 5 6 7 8 9 10 11 12 13 14 15 16 17 18 19 20 21 22 23 24 25 26 27 28 29 30 31 32 33 34 35 36 37 38 39 40
000
FTUS41 KRNK 302335
TAFLWB
TAF
KLWB 302335Z 3100/3124 00000KT P6SM SCT110 BKN250
     FM310800 00000KT 1SM BR SCT001 SCT250
      TEMPO 3109/3113 1/4SM FG VV001
     FM311400 24004KT P6SM SCT035 SCT250
     FM311900 25004KT P6SM BKN040 BKN250=

USA.gov is the U.S. government's official web portal to all federal, state and local government web resources and services.